sensor_id;sensor_type;location;lat;lon;timestamp;P1;durP1;ratioP1;P2;durP2;ratioP2
33760;SDS011;20084;47.912;19.044;2024-02-15T00:02:21;5.18;;;3.00;;
33760;SDS011;20084;47.912;19.044;2024-02-15T00:04:47;5.07;;;2.67;;
33760;SDS011;20084;47.912;19.044;2024-02-15T00:07:12;3.38;;;2.50;;
33760;SDS011;20084;47.912;19.044;2024-02-15T00:09:38;5.35;;;3.30;;
33760;SDS011;20084;47.912;19.044;2024-02-15T00:12:04;6.32;;;3.33;;
33760;SDS011;20084;47.912;19.044;2024-02-15T00:14:29;4.88;;;3.13;;
33760;SDS011;20084;47.912;19.044;2024-02-15T00:16:56;4.35;;;3.15;;
33760;SDS011;20084;47.912;19.044;2024-02-15T00:19:22;6.30;;;3.17;;
33760;SDS011;20084;47.912;19.044;2024-02-15T00:21:49;3.63;;;2.97;;
33760;SDS011;20084;47.912;19.044;2024-02-15T00:24:15;5.82;;;3.35;;
33760;SDS011;20084;47.912;19.044;2024-02-15T00:26:40;5.93;;;3.30;;
33760;SDS011;20084;47.912;19.044;2024-02-15T00:29:07;5.55;;;3.42;;
33760;SDS011;20084;47.912;19.044;2024-02-15T00:31:33;4.60;;;2.90;;
33760;SDS011;20084;47.912;19.044;2024-02-15T00:34:00;4.78;;;2.95;;
33760;SDS011;20084;47.912;19.044;2024-02-15T00:36:27;5.88;;;3.30;;
33760;SDS011;20084;47.912;19.044;2024-02-15T00:38:53;4.40;;;3.15;;
33760;SDS011;20084;47.912;19.044;2024-02-15T00:41:18;7.30;;;4.00;;
33760;SDS011;20084;47.912;19.044;2024-02-15T00:43:45;8.00;;;4.47;;
33760;SDS011;20084;47.912;19.044;2024-02-15T00:46:10;10.85;;;6.32;;
33760;SDS011;20084;47.912;19.044;2024-02-15T00:48:36;19.95;;;10.60;;
33760;SDS011;20084;47.912;19.044;2024-02-15T00:51:01;21.77;;;12.30;;
33760;SDS011;20084;47.912;19.044;2024-02-15T00:53:28;18.48;;;10.68;;
33760;SDS011;20084;47.912;19.044;2024-02-15T00:55:53;11.90;;;7.72;;
33760;SDS011;20084;47.912;19.044;2024-02-15T00:58:20;12.02;;;8.20;;
33760;SDS011;20084;47.912;19.044;2024-02-15T01:00:46;15.38;;;8.95;;
33760;SDS011;20084;47.912;19.044;2024-02-15T01:03:12;12.05;;;8.30;;
33760;SDS011;20084;47.912;19.044;2024-02-15T01:05:38;13.43;;;8.60;;
33760;SDS011;20084;47.912;19.044;2024-02-15T01:08:03;16.10;;;9.63;;
33760;SDS011;20084;47.912;19.044;2024-02-15T01:10:30;14.32;;;9.60;;
33760;SDS011;20084;47.912;19.044;2024-02-15T01:12:55;11.75;;;8.40;;
33760;SDS011;20084;47.912;19.044;2024-02-15T01:15:21;12.98;;;8.20;;
33760;SDS011;20084;47.912;19.044;2024-02-15T01:17:46;10.90;;;7.05;;
33760;SDS011;20084;47.912;19.044;2024-02-15T01:20:12;8.60;;;6.35;;
33760;SDS011;20084;47.912;19.044;2024-02-15T01:22:38;11.88;;;5.80;;
33760;SDS011;20084;47.912;19.044;2024-02-15T01:25:03;9.13;;;5.32;;
33760;SDS011;20084;47.912;19.044;2024-02-15T01:27:29;9.43;;;5.35;;
33760;SDS011;20084;47.912;19.044;2024-02-15T01:29:58;8.65;;;5.90;;
33760;SDS011;20084;47.912;19.044;2024-02-15T01:32:24;10.98;;;6.95;;
33760;SDS011;20084;47.912;19.044;2024-02-15T01:34:50;13.13;;;8.57;;
33760;SDS011;20084;47.912;19.044;2024-02-15T01:37:19;11.85;;;7.65;;
33760;SDS011;20084;47.912;19.044;2024-02-15T01:39:45;11.43;;;7.35;;
33760;SDS011;20084;47.912;19.044;2024-02-15T01:42:11;10.82;;;6.72;;
33760;SDS011;20084;47.912;19.044;2024-02-15T01:44:39;6.55;;;4.97;;
33760;SDS011;20084;47.912;19.044;2024-02-15T01:47:09;8.77;;;5.13;;
33760;SDS011;20084;47.912;19.044;2024-02-15T01:49:36;7.43;;;5.05;;
33760;SDS011;20084;47.912;19.044;2024-02-15T01:52:02;6.28;;;4.88;;
33760;SDS011;20084;47.912;19.044;2024-02-15T01:54:30;7.70;;;5.60;;
33760;SDS011;20084;47.912;19.044;2024-02-15T01:56:57;8.38;;;6.05;;
33760;SDS011;20084;47.912;19.044;2024-02-15T01:59:23;9.82;;;6.50;;
33760;SDS011;20084;47.912;19.044;2024-02-15T02:01:50;9.00;;;5.97;;
33760;SDS011;20084;47.912;19.044;2024-02-15T02:04:16;10.05;;;6.03;;
33760;SDS011;20084;47.912;19.044;2024-02-15T02:06:41;11.57;;;5.65;;
33760;SDS011;20084;47.912;19.044;2024-02-15T02:09:10;9.98;;;6.07;;
33760;SDS011;20084;47.912;19.044;2024-02-15T02:11:44;8.13;;;5.97;;
33760;SDS011;20084;47.912;19.044;2024-02-15T02:14:11;8.32;;;5.32;;
33760;SDS011;20084;47.912;19.044;2024-02-15T02:16:36;6.40;;;4.40;;
33760;SDS011;20084;47.912;19.044;2024-02-15T02:19:04;8.88;;;4.95;;
33760;SDS011;20084;47.912;19.044;2024-02-15T02:21:33;8.95;;;5.63;;
33760;SDS011;20084;47.912;19.044;2024-02-15T02:24:04;9.80;;;5.55;;
33760;SDS011;20084;47.912;19.044;2024-02-15T02:26:37;12.20;;;6.97;;
33760;SDS011;20084;47.912;19.044;2024-02-15T02:29:03;14.77;;;8.88;;
33760;SDS011;20084;47.912;19.044;2024-02-15T02:31:32;12.20;;;8.65;;
33760;SDS011;20084;47.912;19.044;2024-02-15T02:33:59;10.57;;;7.43;;
33760;SDS011;20084;47.912;19.044;2024-02-15T02:36:25;11.35;;;6.82;;
33760;SDS011;20084;47.912;19.044;2024-02-15T02:38:52;10.77;;;6.43;;
33760;SDS011;20084;47.912;19.044;2024-02-15T02:41:18;8.98;;;5.88;;
33760;SDS011;20084;47.912;19.044;2024-02-15T02:43:46;11.48;;;6.80;;
33760;SDS011;20084;47.912;19.044;2024-02-15T02:46:12;8.98;;;5.47;;
33760;SDS011;20084;47.912;19.044;2024-02-15T02:48:38;6.95;;;4.50;;
33760;SDS011;20084;47.912;19.044;2024-02-15T02:51:06;7.00;;;4.28;;
33760;SDS011;20084;47.912;19.044;2024-02-15T02:53:32;8.23;;;4.68;;
33760;SDS011;20084;47.912;19.044;2024-02-15T02:55:57;7.93;;;4.88;;
33760;SDS011;20084;47.912;19.044;2024-02-15T02:58:23;7.70;;;4.70;;
33760;SDS011;20084;47.912;19.044;2024-02-15T03:00:49;9.45;;;4.85;;
33760;SDS011;20084;47.912;19.044;2024-02-15T03:03:15;8.55;;;5.05;;
33760;SDS011;20084;47.912;19.044;2024-02-15T03:05:41;6.85;;;4.70;;
33760;SDS011;20084;47.912;19.044;2024-02-15T03:08:13;7.28;;;4.72;;
33760;SDS011;20084;47.912;19.044;2024-02-15T03:10:38;8.35;;;4.40;;
33760;SDS011;20084;47.912;19.044;2024-02-15T03:13:05;7.10;;;4.97;;
33760;SDS011;20084;47.912;19.044;2024-02-15T03:15:32;5.25;;;4.30;;
33760;SDS011;20084;47.912;19.044;2024-02-15T03:17:59;7.78;;;4.03;;
33760;SDS011;20084;47.912;19.044;2024-02-15T03:20:25;8.68;;;4.80;;
33760;SDS011;20084;47.912;19.044;2024-02-15T03:22:54;6.10;;;4.53;;
33760;SDS011;20084;47.912;19.044;2024-02-15T03:25:20;6.18;;;4.35;;
33760;SDS011;20084;47.912;19.044;2024-02-15T03:27:50;6.75;;;4.82;;
33760;SDS011;20084;47.912;19.044;2024-02-15T03:30:19;5.68;;;3.95;;
33760;SDS011;20084;47.912;19.044;2024-02-15T03:32:45;6.70;;;4.38;;
33760;SDS011;20084;47.912;19.044;2024-02-15T03:35:13;5.82;;;4.55;;
33760;SDS011;20084;47.912;19.044;2024-02-15T03:37:42;8.13;;;4.88;;
33760;SDS011;20084;47.912;19.044;2024-02-15T03:40:08;7.93;;;4.97;;
33760;SDS011;20084;47.912;19.044;2024-02-15T03:42:34;7.25;;;5.47;;
33760;SDS011;20084;47.912;19.044;2024-02-15T03:45:04;11.30;;;6.70;;
33760;SDS011;20084;47.912;19.044;2024-02-15T03:47:33;7.18;;;5.65;;
33760;SDS011;20084;47.912;19.044;2024-02-15T03:50:00;8.02;;;6.00;;
33760;SDS011;20084;47.912;19.044;2024-02-15T03:52:27;7.90;;;5.35;;
33760;SDS011;20084;47.912;19.044;2024-02-15T03:54:54;7.18;;;5.13;;
33760;SDS011;20084;47.912;19.044;2024-02-15T03:57:22;9.85;;;6.00;;
33760;SDS011;20084;47.912;19.044;2024-02-15T03:59:51;8.27;;;5.70;;
33760;SDS011;20084;47.912;19.044;2024-02-15T04:02:21;6.90;;;5.00;;
33760;SDS011;20084;47.912;19.044;2024-02-15T04:04:48;5.53;;;3.83;;
33760;SDS011;20084;47.912;19.044;2024-02-15T04:07:19;6.90;;;4.30;;
33760;SDS011;20084;47.912;19.044;2024-02-15T04:09:45;6.00;;;3.47;;
33760;SDS011;20084;47.912;19.044;2024-02-15T04:12:11;5.95;;;3.40;;
33760;SDS011;20084;47.912;19.044;2024-02-15T04:14:37;4.90;;;3.22;;
33760;SDS011;20084;47.912;19.044;2024-02-15T04:17:03;3.90;;;3.20;;
33760;SDS011;20084;47.912;19.044;2024-02-15T04:19:30;6.25;;;3.15;;
33760;SDS011;20084;47.912;19.044;2024-02-15T04:21:59;3.95;;;3.10;;
33760;SDS011;20084;47.912;19.044;2024-02-15T04:24:26;4.28;;;2.97;;
33760;SDS011;20084;47.912;19.044;2024-02-15T04:26:51;6.95;;;3.25;;
33760;SDS011;20084;47.912;19.044;2024-02-15T04:29:17;5.35;;;3.67;;
33760;SDS011;20084;47.912;19.044;2024-02-15T04:31:45;5.30;;;3.50;;
33760;SDS011;20084;47.912;19.044;2024-02-15T04:34:14;4.00;;;3.10;;
33760;SDS011;20084;47.912;19.044;2024-02-15T04:36:45;5.72;;;4.13;;
33760;SDS011;20084;47.912;19.044;2024-02-15T04:39:16;7.68;;;4.38;;
33760;SDS011;20084;47.912;19.044;2024-02-15T04:41:52;10.73;;;4.57;;
33760;SDS011;20084;47.912;19.044;2024-02-15T04:44:18;7.07;;;4.50;;
33760;SDS011;20084;47.912;19.044;2024-02-15T04:46:51;7.50;;;4.25;;
33760;SDS011;20084;47.912;19.044;2024-02-15T04:49:17;6.38;;;4.22;;
33760;SDS011;20084;47.912;19.044;2024-02-15T04:51:43;5.90;;;4.03;;
33760;SDS011;20084;47.912;19.044;2024-02-15T04:54:12;5.25;;;3.63;;
33760;SDS011;20084;47.912;19.044;2024-02-15T04:56:39;5.55;;;4.45;;
33760;SDS011;20084;47.912;19.044;2024-02-15T04:59:06;5.32;;;3.90;;
33760;SDS011;20084;47.912;19.044;2024-02-15T05:01:41;6.45;;;4.03;;
33760;SDS011;20084;47.912;19.044;2024-02-15T05:04:10;6.28;;;3.97;;
33760;SDS011;20084;47.912;19.044;2024-02-15T05:06:36;6.57;;;4.38;;
33760;SDS011;20084;47.912;19.044;2024-02-15T05:09:03;7.00;;;3.85;;
33760;SDS011;20084;47.912;19.044;2024-02-15T05:11:35;7.93;;;4.15;;
33760;SDS011;20084;47.912;19.044;2024-02-15T05:14:03;6.07;;;4.05;;
33760;SDS011;20084;47.912;19.044;2024-02-15T05:16:32;6.82;;;4.18;;
33760;SDS011;20084;47.912;19.044;2024-02-15T05:18:58;6.40;;;3.67;;
33760;SDS011;20084;47.912;19.044;2024-02-15T05:21:24;7.30;;;4.30;;
33760;SDS011;20084;47.912;19.044;2024-02-15T05:23:49;6.35;;;4.30;;
33760;SDS011;20084;47.912;19.044;2024-02-15T05:26:17;5.07;;;3.67;;
33760;SDS011;20084;47.912;19.044;2024-02-15T05:28:48;6.93;;;3.60;;
33760;SDS011;20084;47.912;19.044;2024-02-15T05:31:17;5.57;;;4.22;;
33760;SDS011;20084;47.912;19.044;2024-02-15T05:33:49;7.05;;;3.75;;
33760;SDS011;20084;47.912;19.044;2024-02-15T05:36:15;6.82;;;4.32;;
33760;SDS011;20084;47.912;19.044;2024-02-15T05:38:45;8.10;;;4.40;;
33760;SDS011;20084;47.912;19.044;2024-02-15T05:41:14;5.32;;;4.03;;
33760;SDS011;20084;47.912;19.044;2024-02-15T05:43:41;4.57;;;3.50;;
33760;SDS011;20084;47.912;19.044;2024-02-15T05:46:07;4.60;;;3.53;;
33760;SDS011;20084;47.912;19.044;2024-02-15T05:48:34;8.43;;;4.40;;
33760;SDS011;20084;47.912;19.044;2024-02-15T05:51:01;8.38;;;4.25;;
33760;SDS011;20084;47.912;19.044;2024-02-15T05:53:31;5.90;;;4.07;;
33760;SDS011;20084;47.912;19.044;2024-02-15T05:56:01;6.68;;;4.20;;
33760;SDS011;20084;47.912;19.044;2024-02-15T05:58:31;9.77;;;5.13;;
33760;SDS011;20084;47.912;19.044;2024-02-15T06:00:57;10.88;;;6.38;;
33760;SDS011;20084;47.912;19.044;2024-02-15T06:03:29;8.80;;;5.45;;
33760;SDS011;20084;47.912;19.044;2024-02-15T06:05:57;9.52;;;6.38;;
33760;SDS011;20084;47.912;19.044;2024-02-15T06:08:26;11.27;;;5.65;;
33760;SDS011;20084;47.912;19.044;2024-02-15T06:10:55;9.40;;;5.72;;
33760;SDS011;20084;47.912;19.044;2024-02-15T06:13:21;7.78;;;5.45;;
33760;SDS011;20084;47.912;19.044;2024-02-15T06:15:47;6.57;;;5.05;;
33760;SDS011;20084;47.912;19.044;2024-02-15T06:18:18;8.75;;;5.43;;
33760;SDS011;20084;47.912;19.044;2024-02-15T06:20:46;9.50;;;5.85;;
33760;SDS011;20084;47.912;19.044;2024-02-15T06:23:15;7.10;;;5.43;;
33760;SDS011;20084;47.912;19.044;2024-02-15T06:25:41;7.40;;;4.75;;
33760;SDS011;20084;47.912;19.044;2024-02-15T06:28:07;6.57;;;4.63;;
33760;SDS011;20084;47.912;19.044;2024-02-15T06:30:45;5.43;;;4.40;;
33760;SDS011;20084;47.912;19.044;2024-02-15T06:33:29;5.70;;;4.55;;
33760;SDS011;20084;47.912;19.044;2024-02-15T06:36:13;5.90;;;4.57;;
33760;SDS011;20084;47.912;19.044;2024-02-15T06:38:57;6.53;;;4.40;;
33760;SDS011;20084;47.912;19.044;2024-02-15T06:41:41;8.70;;;5.63;;
33760;SDS011;20084;47.912;19.044;2024-02-15T06:44:07;7.47;;;6.18;;
33760;SDS011;20084;47.912;19.044;2024-02-15T06:46:33;9.50;;;6.20;;
33760;SDS011;20084;47.912;19.044;2024-02-15T06:48:58;7.88;;;6.22;;
33760;SDS011;20084;47.912;19.044;2024-02-15T06:51:24;9.27;;;6.00;;
33760;SDS011;20084;47.912;19.044;2024-02-15T06:53:50;9.57;;;7.38;;
33760;SDS011;20084;47.912;19.044;2024-02-15T06:56:16;10.80;;;7.85;;
33760;SDS011;20084;47.912;19.044;2024-02-15T06:58:45;11.27;;;7.85;;
33760;SDS011;20084;47.912;19.044;2024-02-15T07:01:11;14.40;;;8.32;;
33760;SDS011;20084;47.912;19.044;2024-02-15T07:03:38;12.30;;;8.75;;
33760;SDS011;20084;47.912;19.044;2024-02-15T07:06:04;10.70;;;8.43;;
33760;SDS011;20084;47.912;19.044;2024-02-15T07:08:31;11.07;;;8.65;;
33760;SDS011;20084;47.912;19.044;2024-02-15T07:10:57;11.88;;;9.05;;
33760;SDS011;20084;47.912;19.044;2024-02-15T07:13:23;9.68;;;7.88;;
33760;SDS011;20084;47.912;19.044;2024-02-15T07:15:51;12.25;;;8.90;;
33760;SDS011;20084;47.912;19.044;2024-02-15T07:18:17;12.25;;;8.57;;
33760;SDS011;20084;47.912;19.044;2024-02-15T07:20:45;11.82;;;8.52;;
33760;SDS011;20084;47.912;19.044;2024-02-15T07:23:11;12.10;;;8.70;;
33760;SDS011;20084;47.912;19.044;2024-02-15T07:25:36;12.90;;;8.57;;
33760;SDS011;20084;47.912;19.044;2024-02-15T07:28:04;11.32;;;7.25;;
33760;SDS011;20084;47.912;19.044;2024-02-15T07:30:30;14.32;;;9.00;;
33760;SDS011;20084;47.912;19.044;2024-02-15T07:32:56;11.23;;;8.30;;
33760;SDS011;20084;47.912;19.044;2024-02-15T07:35:22;11.20;;;8.90;;
33760;SDS011;20084;47.912;19.044;2024-02-15T07:37:53;13.85;;;7.93;;
33760;SDS011;20084;47.912;19.044;2024-02-15T07:40:23;12.20;;;7.95;;
33760;SDS011;20084;47.912;19.044;2024-02-15T07:42:52;18.48;;;8.50;;
33760;SDS011;20084;47.912;19.044;2024-02-15T07:45:19;10.80;;;7.65;;
33760;SDS011;20084;47.912;19.044;2024-02-15T07:47:45;11.02;;;8.55;;
33760;SDS011;20084;47.912;19.044;2024-02-15T07:50:11;10.95;;;7.45;;
33760;SDS011;20084;47.912;19.044;2024-02-15T07:52:45;10.70;;;8.00;;
33760;SDS011;20084;47.912;19.044;2024-02-15T07:55:10;11.63;;;8.20;;
33760;SDS011;20084;47.912;19.044;2024-02-15T07:57:36;16.77;;;7.75;;
33760;SDS011;20084;47.912;19.044;2024-02-15T08:00:02;10.80;;;8.18;;
33760;SDS011;20084;47.912;19.044;2024-02-15T08:02:35;11.65;;;8.25;;
33760;SDS011;20084;47.912;19.044;2024-02-15T08:05:00;12.38;;;8.65;;
33760;SDS011;20084;47.912;19.044;2024-02-15T08:07:30;9.73;;;7.45;;
33760;SDS011;20084;47.912;19.044;2024-02-15T08:09:59;13.50;;;8.40;;
33760;SDS011;20084;47.912;19.044;2024-02-15T08:12:25;11.48;;;8.00;;
33760;SDS011;20084;47.912;19.044;2024-02-15T08:14:51;10.98;;;8.18;;
33760;SDS011;20084;47.912;19.044;2024-02-15T08:17:17;14.20;;;8.63;;
33760;SDS011;20084;47.912;19.044;2024-02-15T08:19:42;11.68;;;8.10;;
33760;SDS011;20084;47.912;19.044;2024-02-15T08:22:08;11.68;;;8.35;;
33760;SDS011;20084;47.912;19.044;2024-02-15T08:24:34;18.55;;;9.15;;
33760;SDS011;20084;47.912;19.044;2024-02-15T08:27:01;11.13;;;8.45;;
33760;SDS011;20084;47.912;19.044;2024-02-15T08:29:29;14.60;;;9.05;;
33760;SDS011;20084;47.912;19.044;2024-02-15T08:31:55;12.68;;;8.02;;
33760;SDS011;20084;47.912;19.044;2024-02-15T08:34:20;11.23;;;8.30;;
33760;SDS011;20084;47.912;19.044;2024-02-15T08:36:46;12.75;;;8.35;;
33760;SDS011;20084;47.912;19.044;2024-02-15T08:39:13;13.73;;;8.30;;
33760;SDS011;20084;47.912;19.044;2024-02-15T08:41:41;26.10;;;9.32;;
33760;SDS011;20084;47.912;19.044;2024-02-15T08:44:07;14.93;;;8.65;;
33760;SDS011;20084;47.912;19.044;2024-02-15T08:46:36;14.70;;;8.88;;
33760;SDS011;20084;47.912;19.044;2024-02-15T08:49:02;11.20;;;8.15;;
33760;SDS011;20084;47.912;19.044;2024-02-15T08:51:28;12.18;;;7.82;;
33760;SDS011;20084;47.912;19.044;2024-02-15T08:53:55;12.10;;;8.52;;
33760;SDS011;20084;47.912;19.044;2024-02-15T08:56:21;10.68;;;8.10;;
33760;SDS011;20084;47.912;19.044;2024-02-15T08:58:48;15.07;;;8.50;;
33760;SDS011;20084;47.912;19.044;2024-02-15T09:01:14;15.32;;;9.02;;
33760;SDS011;20084;47.912;19.044;2024-02-15T09:03:40;10.63;;;8.48;;
33760;SDS011;20084;47.912;19.044;2024-02-15T09:06:06;12.55;;;8.80;;
33760;SDS011;20084;47.912;19.044;2024-02-15T09:08:32;13.63;;;8.95;;
33760;SDS011;20084;47.912;19.044;2024-02-15T09:10:58;11.98;;;9.02;;
33760;SDS011;20084;47.912;19.044;2024-02-15T09:13:24;10.18;;;8.40;;
33760;SDS011;20084;47.912;19.044;2024-02-15T09:15:50;11.10;;;8.05;;
33760;SDS011;20084;47.912;19.044;2024-02-15T09:18:15;10.43;;;8.55;;
33760;SDS011;20084;47.912;19.044;2024-02-15T09:20:43;12.75;;;9.07;;
33760;SDS011;20084;47.912;19.044;2024-02-15T09:23:10;14.27;;;8.15;;
33760;SDS011;20084;47.912;19.044;2024-02-15T09:25:40;9.93;;;8.07;;
33760;SDS011;20084;47.912;19.044;2024-02-15T09:28:09;11.73;;;9.13;;
33760;SDS011;20084;47.912;19.044;2024-02-15T09:30:34;10.18;;;7.65;;
33760;SDS011;20084;47.912;19.044;2024-02-15T09:33:00;13.70;;;8.18;;
33760;SDS011;20084;47.912;19.044;2024-02-15T09:35:30;12.68;;;7.72;;
33760;SDS011;20084;47.912;19.044;2024-02-15T09:37:56;10.85;;;8.30;;
33760;SDS011;20084;47.912;19.044;2024-02-15T09:40:22;11.75;;;7.70;;
33760;SDS011;20084;47.912;19.044;2024-02-15T09:42:51;10.63;;;8.07;;
33760;SDS011;20084;47.912;19.044;2024-02-15T09:45:17;10.77;;;7.88;;
33760;SDS011;20084;47.912;19.044;2024-02-15T09:47:45;12.98;;;7.55;;
33760;SDS011;20084;47.912;19.044;2024-02-15T09:50:12;13.13;;;8.45;;
33760;SDS011;20084;47.912;19.044;2024-02-15T09:52:39;9.02;;;7.10;;
33760;SDS011;20084;47.912;19.044;2024-02-15T09:55:06;8.70;;;6.75;;
33760;SDS011;20084;47.912;19.044;2024-02-15T09:57:39;12.77;;;7.63;;
33760;SDS011;20084;47.912;19.044;2024-02-15T10:00:09;10.80;;;7.50;;
33760;SDS011;20084;47.912;19.044;2024-02-15T10:02:39;12.80;;;8.02;;
33760;SDS011;20084;47.912;19.044;2024-02-15T10:05:09;10.95;;;7.32;;
33760;SDS011;20084;47.912;19.044;2024-02-15T10:07:38;8.88;;;7.57;;
33760;SDS011;20084;47.912;19.044;2024-02-15T10:13:00;17.67;;;7.80;;
33760;SDS011;20084;47.912;19.044;2024-02-15T10:15:27;14.63;;;8.23;;
33760;SDS011;20084;47.912;19.044;2024-02-15T10:17:54;10.27;;;7.72;;
33760;SDS011;20084;47.912;19.044;2024-02-15T10:20:20;10.93;;;7.90;;
33760;SDS011;20084;47.912;19.044;2024-02-15T10:22:46;11.13;;;7.47;;
33760;SDS011;20084;47.912;19.044;2024-02-15T10:25:12;22.17;;;7.95;;
33760;SDS011;20084;47.912;19.044;2024-02-15T10:27:39;11.43;;;8.27;;
33760;SDS011;20084;47.912;19.044;2024-02-15T10:30:15;14.20;;;7.60;;
33760;SDS011;20084;47.912;19.044;2024-02-15T10:32:42;15.18;;;8.13;;
33760;SDS011;20084;47.912;19.044;2024-02-15T10:35:09;17.48;;;7.82;;
33760;SDS011;20084;47.912;19.044;2024-02-15T10:37:40;37.72;;;8.93;;
33760;SDS011;20084;47.912;19.044;2024-02-15T10:40:07;27.23;;;8.38;;
33760;SDS011;20084;47.912;19.044;2024-02-15T10:42:33;11.68;;;8.55;;
33760;SDS011;20084;47.912;19.044;2024-02-15T10:45:01;28.92;;;9.15;;
33760;SDS011;20084;47.912;19.044;2024-02-15T10:47:30;18.08;;;8.95;;
33760;SDS011;20084;47.912;19.044;2024-02-15T10:49:57;20.77;;;8.30;;
33760;SDS011;20084;47.912;19.044;2024-02-15T10:52:24;10.70;;;7.82;;
33760;SDS011;20084;47.912;19.044;2024-02-15T10:55:02;11.32;;;8.90;;
33760;SDS011;20084;47.912;19.044;2024-02-15T10:57:33;10.85;;;8.63;;
33760;SDS011;20084;47.912;19.044;2024-02-15T11:00:04;10.23;;;8.38;;
33760;SDS011;20084;47.912;19.044;2024-02-15T11:02:42;20.95;;;8.10;;
33760;SDS011;20084;47.912;19.044;2024-02-15T11:05:14;12.25;;;8.50;;
33760;SDS011;20084;47.912;19.044;2024-02-15T11:07:46;12.77;;;9.02;;
33760;SDS011;20084;47.912;19.044;2024-02-15T11:10:11;10.85;;;8.38;;
33760;SDS011;20084;47.912;19.044;2024-02-15T11:12:41;10.55;;;8.43;;
33760;SDS011;20084;47.912;19.044;2024-02-15T11:15:08;8.90;;;7.85;;
33760;SDS011;20084;47.912;19.044;2024-02-15T11:20:02;11.48;;;8.27;;
33760;SDS011;20084;47.912;19.044;2024-02-15T11:22:35;11.38;;;8.30;;
33760;SDS011;20084;47.912;19.044;2024-02-15T11:25:02;13.75;;;8.40;;
33760;SDS011;20084;47.912;19.044;2024-02-15T11:27:37;16.77;;;8.90;;
33760;SDS011;20084;47.912;19.044;2024-02-15T11:30:04;17.10;;;8.95;;
33760;SDS011;20084;47.912;19.044;2024-02-15T11:32:48;9.57;;;7.70;;
33760;SDS011;20084;47.912;19.044;2024-02-15T11:43:06;13.40;;;8.93;;
33760;SDS011;20084;47.912;19.044;2024-02-15T11:45:32;12.10;;;8.57;;
33760;SDS011;20084;47.912;19.044;2024-02-15T11:48:12;13.52;;;9.18;;
33760;SDS011;20084;47.912;19.044;2024-02-15T11:50:39;14.60;;;9.30;;
33760;SDS011;20084;47.912;19.044;2024-02-15T11:53:05;12.10;;;8.82;;
33760;SDS011;20084;47.912;19.044;2024-02-15T11:55:35;12.10;;;8.15;;
33760;SDS011;20084;47.912;19.044;2024-02-15T11:58:04;19.67;;;8.35;;
33760;SDS011;20084;47.912;19.044;2024-02-15T12:00:43;17.35;;;8.45;;
33760;SDS011;20084;47.912;19.044;2024-02-15T12:03:28;11.07;;;9.35;;
33760;SDS011;20084;47.912;19.044;2024-02-15T12:06:12;9.20;;;7.78;;
33760;SDS011;20084;47.912;19.044;2024-02-15T12:09:00;11.20;;;7.75;;
33760;SDS011;20084;47.912;19.044;2024-02-15T12:11:44;10.90;;;8.65;;
33760;SDS011;20084;47.912;19.044;2024-02-15T12:14:28;8.73;;;7.20;;
33760;SDS011;20084;47.912;19.044;2024-02-15T12:17:13;11.40;;;8.30;;
33760;SDS011;20084;47.912;19.044;2024-02-15T12:19:59;9.93;;;7.20;;
33760;SDS011;20084;47.912;19.044;2024-02-15T12:22:32;9.90;;;7.03;;
33760;SDS011;20084;47.912;19.044;2024-02-15T12:25:13;11.00;;;7.45;;
33760;SDS011;20084;47.912;19.044;2024-02-15T12:27:46;11.15;;;7.50;;
33760;SDS011;20084;47.912;19.044;2024-02-15T12:30:17;10.05;;;8.40;;
33760;SDS011;20084;47.912;19.044;2024-02-15T12:32:52;14.32;;;8.00;;
33760;SDS011;20084;47.912;19.044;2024-02-15T12:35:33;9.80;;;7.90;;
33760;SDS011;20084;47.912;19.044;2024-02-15T12:40:29;13.35;;;8.30;;
33760;SDS011;20084;47.912;19.044;2024-02-15T12:42:59;10.07;;;8.32;;
33760;SDS011;20084;47.912;19.044;2024-02-15T12:45:25;9.98;;;8.30;;
33760;SDS011;20084;47.912;19.044;2024-02-15T12:47:55;12.20;;;8.43;;
33760;SDS011;20084;47.912;19.044;2024-02-15T12:50:22;10.30;;;8.82;;
33760;SDS011;20084;47.912;19.044;2024-02-15T12:52:53;11.77;;;9.73;;
33760;SDS011;20084;47.912;19.044;2024-02-15T12:55:20;12.30;;;8.57;;
33760;SDS011;20084;47.912;19.044;2024-02-15T12:57:51;11.98;;;8.98;;
33760;SDS011;20084;47.912;19.044;2024-02-15T13:00:21;9.35;;;8.32;;
33760;SDS011;20084;47.912;19.044;2024-02-15T13:02:57;13.35;;;8.73;;
33760;SDS011;20084;47.912;19.044;2024-02-15T13:05:24;14.00;;;9.35;;
33760;SDS011;20084;47.912;19.044;2024-02-15T13:07:51;11.43;;;9.45;;
33760;SDS011;20084;47.912;19.044;2024-02-15T13:10:20;9.88;;;8.55;;
33760;SDS011;20084;47.912;19.044;2024-02-15T13:12:46;19.30;;;13.95;;
33760;SDS011;20084;47.912;19.044;2024-02-15T13:15:12;13.88;;;9.77;;
33760;SDS011;20084;47.912;19.044;2024-02-15T13:17:49;12.77;;;9.38;;
33760;SDS011;20084;47.912;19.044;2024-02-15T13:22:57;16.95;;;9.93;;
33760;SDS011;20084;47.912;19.044;2024-02-15T13:25:25;14.52;;;9.77;;
33760;SDS011;20084;47.912;19.044;2024-02-15T13:27:51;21.23;;;10.63;;
33760;SDS011;20084;47.912;19.044;2024-02-15T13:30:18;12.88;;;9.70;;
33760;SDS011;20084;47.912;19.044;2024-02-15T13:32:48;12.05;;;9.20;;
33760;SDS011;20084;47.912;19.044;2024-02-15T13:35:16;11.65;;;9.05;;
33760;SDS011;20084;47.912;19.044;2024-02-15T13:37:51;13.40;;;10.00;;
33760;SDS011;20084;47.912;19.044;2024-02-15T13:40:19;15.43;;;10.50;;
33760;SDS011;20084;47.912;19.044;2024-02-15T13:42:48;16.05;;;9.95;;
33760;SDS011;20084;47.912;19.044;2024-02-15T13:45:19;14.30;;;9.73;;
33760;SDS011;20084;47.912;19.044;2024-02-15T13:47:49;13.15;;;9.63;;
33760;SDS011;20084;47.912;19.044;2024-02-15T13:50:21;15.45;;;9.65;;
33760;SDS011;20084;47.912;19.044;2024-02-15T13:52:47;13.57;;;9.73;;
33760;SDS011;20084;47.912;19.044;2024-02-15T13:55:16;15.43;;;9.25;;
33760;SDS011;20084;47.912;19.044;2024-02-15T13:57:46;12.52;;;9.77;;
33760;SDS011;20084;47.912;19.044;2024-02-15T14:00:14;16.58;;;12.68;;
33760;SDS011;20084;47.912;19.044;2024-02-15T14:02:53;28.58;;;17.77;;
33760;SDS011;20084;47.912;19.044;2024-02-15T14:05:20;31.73;;;19.42;;
33760;SDS011;20084;47.912;19.044;2024-02-15T14:07:49;14.88;;;10.18;;
33760;SDS011;20084;47.912;19.044;2024-02-15T14:10:17;11.57;;;8.93;;
33760;SDS011;20084;47.912;19.044;2024-02-15T14:12:44;21.70;;;12.65;;
33760;SDS011;20084;47.912;19.044;2024-02-15T14:15:10;25.88;;;14.93;;
33760;SDS011;20084;47.912;19.044;2024-02-15T14:17:37;25.00;;;16.20;;
33760;SDS011;20084;47.912;19.044;2024-02-15T14:20:03;18.75;;;11.60;;
33760;SDS011;20084;47.912;19.044;2024-02-15T14:22:33;18.45;;;12.00;;
33760;SDS011;20084;47.912;19.044;2024-02-15T14:24:59;13.90;;;10.07;;
33760;SDS011;20084;47.912;19.044;2024-02-15T14:27:25;14.32;;;9.95;;
33760;SDS011;20084;47.912;19.044;2024-02-15T14:29:51;13.45;;;11.00;;
33760;SDS011;20084;47.912;19.044;2024-02-15T14:32:36;10.48;;;8.02;;
33760;SDS011;20084;47.912;19.044;2024-02-15T14:35:20;11.07;;;8.60;;
33760;SDS011;20084;47.912;19.044;2024-02-15T14:37:46;12.23;;;9.70;;
33760;SDS011;20084;47.912;19.044;2024-02-15T14:40:12;18.70;;;13.43;;
33760;SDS011;20084;47.912;19.044;2024-02-15T14:42:40;18.05;;;13.05;;
33760;SDS011;20084;47.912;19.044;2024-02-15T14:45:09;26.20;;;19.30;;
33760;SDS011;20084;47.912;19.044;2024-02-15T14:47:38;23.05;;;16.10;;
33760;SDS011;20084;47.912;19.044;2024-02-15T14:50:04;18.33;;;12.27;;
33760;SDS011;20084;47.912;19.044;2024-02-15T14:52:34;18.98;;;11.48;;